< < Back
Terminal Aerodrome Forecast


Current Version              Previous Versions:   1  2  3  4  5  6  7  8  9  

Terminal Aerodrome Forecast

900
FTUS44 KMOB 311120
TAFPNS
TAF
KPNS 311120Z 3112/0112 00000KT P6SM SKC
     FM311500 33005KT P6SM SCT250
     FM311800 19010KT P6SM VCTS SCT040CB SCT250
     FM010300 26005KT P6SM SKC=



Latest METAR

283
SAUS70 KWBC 010100 RRK
MTRPNS
METAR KPNS 010053Z 00000KT 10SM CLR 25/19 A2989 RMK AO2 SLP124
T02500194


USA.gov is the U.S. government's official web portal to all federal, state and local government web resources and services.